Time;durP1;ratioP1;P1;durP2;ratioP2;P2;SDS_P1;SDS_P2;PMS_P1;PMS_P2;Temp;Humidity;BMP_temperature;BMP_pressure;BME280_temperature;BME280_humidity;BME280_pressure;Samples;Min_cycle;Max_cycle;Signal;HPM_P1;HPM_P2
2022/03/02 00:01:09;;;;;;;12.77;6.07;;;1.60;99.90;;;;;;5053957;28;20063;-64
2022/03/02 00:03:36;;;;;;;9.85;5.47;;;1.70;99.90;;;;;;5068346;28;20131;-63
2022/03/02 00:06:02;;;;;;;11.45;5.53;;;1.70;99.90;;;;;;5070808;28;20057;-63
2022/03/02 00:08:27;;;;;;;10.15;5.20;;;1.70;99.90;;;;;;5079287;28;20040;-63
2022/03/02 00:10:53;;;;;;;15.90;6.75;;;1.70;99.90;;;;;;5068794;28;20077;-64
2022/03/02 00:13:19;;;;;;;10.95;6.20;;;1.70;99.90;;;;;;5074902;28;20037;-63
2022/03/02 00:15:45;;;;;;;10.52;6.10;;;1.70;99.90;;;;;;5066915;28;20423;-63
2022/03/02 00:18:11;;;;;;;13.60;6.35;;;1.70;99.90;;;;;;5061296;28;20036;-63
2022/03/02 00:20:37;;;;;;;13.48;5.85;;;1.70;99.90;;;;;;5059865;28;20047;-63
2022/03/02 00:23:03;;;;;;;11.07;5.97;;;1.70;99.90;;;;;;5058322;28;20405;-63
2022/03/02 00:25:28;;;;;;;12.10;5.55;;;1.70;99.90;;;;;;5054871;28;20044;-63
2022/03/02 00:27:54;;;;;;;12.20;6.05;;;1.70;99.90;;;;;;5062022;28;20083;-63
2022/03/02 00:30:22;;;;;;;11.65;6.00;;;1.70;99.90;;;;;;5073553;28;20107;-63
2022/03/02 00:32:48;;;;;;;12.88;5.80;;;1.70;99.90;;;;;;5062251;28;20044;-64
2022/03/02 00:35:14;;;;;;;14.00;6.45;;;1.70;99.90;;;;;;5072781;28;20028;-62
2022/03/02 00:37:39;;;;;;;15.23;5.50;;;1.70;99.90;;;;;;5059853;28;20044;-63
2022/03/02 00:40:07;;;;;;;19.10;6.65;;;1.70;99.90;;;;;;5056545;28;20038;-63
2022/03/02 00:42:32;;;;;;;11.70;5.78;;;1.80;99.90;;;;;;5061342;28;20037;-63
2022/03/02 00:44:58;;;;;;;13.00;5.57;;;1.70;99.90;;;;;;5055504;28;20058;-63
2022/03/02 00:47:24;;;;;;;14.45;5.28;;;1.80;99.90;;;;;;5060169;28;20111;-63
2022/03/02 00:49:49;;;;;;;15.73;6.22;;;1.80;99.90;;;;;;5056960;28;20043;-63
2022/03/02 00:52:15;;;;;;;13.50;6.07;;;1.80;99.90;;;;;;5061548;28;20064;-63
2022/03/02 00:54:41;;;;;;;10.70;5.43;;;1.70;99.90;;;;;;5051345;28;20056;-63
2022/03/02 00:57:07;;;;;;;13.98;5.68;;;1.70;99.90;;;;;;5057849;28;20078;-63
2022/03/02 00:59:32;;;;;;;11.32;5.72;;;1.70;99.90;;;;;;5055711;28;20037;-64
2022/03/02 01:01:58;;;;;;;13.95;6.75;;;1.70;99.90;;;;;;5054154;28;20040;-63
2022/03/02 01:04:24;;;;;;;15.02;6.38;;;1.70;99.90;;;;;;5051920;28;20539;-64
2022/03/02 01:06:50;;;;;;;12.82;5.88;;;1.60;99.90;;;;;;5077092;28;20049;-64
2022/03/02 01:09:16;;;;;;;9.60;5.13;;;1.60;99.90;;;;;;5058748;28;20578;-64
2022/03/02 01:11:41;;;;;;;11.32;5.57;;;1.60;99.90;;;;;;5058348;28;20036;-64
2022/03/02 01:14:07;;;;;;;11.30;5.35;;;1.60;99.90;;;;;;5054396;28;20090;-64
2022/03/02 01:16:33;;;;;;;11.50;5.60;;;1.60;99.90;;;;;;5058333;28;20040;-63
2022/03/02 01:18:58;;;;;;;15.98;5.82;;;1.60;99.90;;;;;;5057495;28;20114;-64
2022/03/02 01:21:24;;;;;;;11.05;5.57;;;1.60;99.90;;;;;;5057065;28;20576;-64
2022/03/02 01:23:53;;;;;;;10.43;5.53;;;1.60;99.90;;;;;;5051245;28;20417;-63
2022/03/02 01:26:22;;;;;;;10.15;5.50;;;1.60;99.90;;;;;;5049369;28;20042;-64
2022/03/02 01:28:48;;;;;;;11.88;5.50;;;1.50;99.90;;;;;;5055318;28;20501;-64
2022/03/02 01:31:14;;;;;;;14.05;5.95;;;1.60;99.90;;;;;;5053681;28;20089;-63
2022/03/02 01:33:40;;;;;;;9.15;4.88;;;1.50;99.90;;;;;;5054303;28;20147;-63
2022/03/02 01:36:05;;;;;;;11.75;5.80;;;1.40;99.90;;;;;;5056305;28;20583;-63
2022/03/02 01:38:31;;;;;;;13.52;5.88;;;1.50;99.90;;;;;;5059996;28;20039;-64
2022/03/02 01:40:57;;;;;;;11.07;5.50;;;1.50;99.90;;;;;;5052306;28;20086;-63
2022/03/02 01:43:27;;;;;;;11.43;5.35;;;1.40;99.90;;;;;;5046249;28;20075;-63
2022/03/02 01:45:53;;;;;;;11.00;5.78;;;1.40;99.90;;;;;;5058041;28;20606;-64
2022/03/02 01:48:19;;;;;;;12.50;4.93;;;1.40;99.90;;;;;;5053014;28;20594;-64
2022/03/02 01:50:44;;;;;;;12.10;5.53;;;1.40;99.90;;;;;;5076997;28;20036;-64
2022/03/02 01:53:10;;;;;;;10.57;5.25;;;1.40;99.90;;;;;;5055863;28;20117;-65
2022/03/02 01:55:36;;;;;;;9.98;5.75;;;1.40;99.90;;;;;;5056570;28;20036;-64
2022/03/02 01:58:02;;;;;;;12.75;5.30;;;1.40;99.90;;;;;;5058448;28;20037;-64
2022/03/02 02:00:27;;;;;;;12.90;5.28;;;1.40;99.90;;;;;;5054399;28;20680;-64
2022/03/02 02:02:54;;;;;;;9.50;4.97;;;1.40;99.90;;;;;;5050219;28;20045;-65
2022/03/02 02:05:19;;;;;;;10.68;5.38;;;1.40;99.90;;;;;;5052741;28;20036;-65
2022/03/02 02:07:45;;;;;;;14.02;5.80;;;1.40;99.90;;;;;;5061221;28;20514;-63
2022/03/02 02:10:12;;;;;;;12.68;5.10;;;1.40;99.90;;;;;;5054180;28;20044;-63
2022/03/02 02:12:37;;;;;;;10.63;5.63;;;1.40;99.90;;;;;;5050439;28;20033;-64
2022/03/02 02:15:05;;;;;;;11.38;5.18;;;1.30;99.90;;;;;;5055633;28;20048;-63
2022/03/02 02:17:30;;;;;;;9.82;4.65;;;1.30;99.90;;;;;;5053840;28;20213;-64
2022/03/02 02:19:56;;;;;;;16.52;6.10;;;1.40;99.90;;;;;;5051833;28;20497;-63
2022/03/02 02:22:22;;;;;;;12.15;5.60;;;1.40;99.90;;;;;;5051657;28;20044;-63
2022/03/02 02:24:48;;;;;;;10.45;5.32;;;1.30;99.90;;;;;;5053312;28;20041;-65
2022/03/02 02:27:15;;;;;;;9.82;5.25;;;1.30;99.90;;;;;;5056099;28;20039;-64
2022/03/02 02:29:42;;;;;;;16.20;6.47;;;1.30;99.90;;;;;;5055932;28;20528;-64
2022/03/02 02:32:09;;;;;;;13.35;5.70;;;1.40;99.90;;;;;;5053654;28;20044;-64
2022/03/02 02:34:35;;;;;;;13.20;5.90;;;1.50;99.90;;;;;;5053142;28;20043;-64
2022/03/02 02:37:05;;;;;;;12.70;5.90;;;1.50;99.90;;;;;;5051566;28;20036;-63
2022/03/02 02:39:31;;;;;;;14.40;5.85;;;1.50;99.90;;;;;;5045574;28;20055;-63
2022/03/02 02:42:05;;;;;;;13.30;6.07;;;1.50;99.90;;;;;;5054410;28;20047;-63
2022/03/02 02:44:32;;;;;;;11.20;6.55;;;1.40;99.90;;;;;;5054597;28;20033;-63
2022/03/02 02:46:58;;;;;;;14.82;6.70;;;1.40;99.90;;;;;;5058996;28;20040;-64
2022/03/02 02:49:25;;;;;;;11.77;5.50;;;1.40;99.90;;;;;;5053124;28;20039;-62
2022/03/02 02:51:53;;;;;;;11.18;5.70;;;1.50;99.90;;;;;;5058900;28;20032;-63
2022/03/02 02:54:20;;;;;;;9.77;5.70;;;1.50;99.90;;;;;;5052900;28;20036;-63
2022/03/02 02:56:45;;;;;;;10.23;5.75;;;1.50;99.90;;;;;;5058714;28;20048;-63
2022/03/02 02:59:11;;;;;;;10.70;5.00;;;1.50;99.90;;;;;;5051052;28;20066;-63
2022/03/02 03:01:36;;;;;;;10.32;5.53;;;1.60;99.90;;;;;;5078195;28;20119;-62
2022/03/02 03:04:03;;;;;;;13.02;5.93;;;1.60;99.90;;;;;;5052958;28;20429;-62
2022/03/02 03:06:29;;;;;;;12.75;5.55;;;1.60;99.90;;;;;;5055095;28;20079;-64
2022/03/02 03:08:55;;;;;;;9.45;5.30;;;1.60;99.90;;;;;;5051008;28;20033;-64
2022/03/02 03:11:21;;;;;;;14.60;6.18;;;1.60;99.90;;;;;;5055808;28;20139;-63
2022/03/02 03:13:47;;;;;;;11.60;5.40;;;1.60;99.90;;;;;;5051028;28;20045;-65
2022/03/02 03:16:12;;;;;;;15.50;5.90;;;1.60;99.90;;;;;;5053729;28;20460;-64
2022/03/02 03:18:38;;;;;;;8.75;5.18;;;1.60;99.90;;;;;;5046415;28;20041;-63
2022/03/02 03:21:03;;;;;;;12.65;6.10;;;1.70;99.90;;;;;;5056223;28;20029;-64
2022/03/02 03:23:29;;;;;;;11.60;5.65;;;1.70;99.90;;;;;;5060738;28;20036;-64
2022/03/02 03:25:55;;;;;;;11.48;5.72;;;1.70;99.90;;;;;;5046067;28;20045;-64
2022/03/02 03:28:20;;;;;;;12.90;5.30;;;1.70;99.90;;;;;;5055121;28;20398;-65
2022/03/02 03:30:46;;;;;;;9.25;4.90;;;1.70;99.90;;;;;;5058171;28;20056;-63
2022/03/02 03:33:11;;;;;;;9.23;5.15;;;1.60;99.90;;;;;;5054991;28;20033;-63
2022/03/02 03:35:37;;;;;;;10.52;5.38;;;1.70;99.90;;;;;;5052940;28;20101;-63
2022/03/02 03:38:03;;;;;;;9.23;5.20;;;1.70;99.90;;;;;;5053660;28;20067;-64
2022/03/02 03:40:29;;;;;;;9.88;5.72;;;1.60;99.90;;;;;;5056580;28;20148;-63
2022/03/02 03:42:55;;;;;;;12.15;5.65;;;1.70;99.90;;;;;;5055217;28;20571;-64
2022/03/02 03:45:21;;;;;;;12.45;5.50;;;1.70;99.90;;;;;;5052075;28;20044;-64
2022/03/02 03:47:47;;;;;;;11.88;5.68;;;1.60;99.90;;;;;;5048960;28;20835;-64
2022/03/02 03:50:13;;;;;;;10.15;5.38;;;1.60;99.90;;;;;;5054039;28;20040;-63
2022/03/02 03:52:40;;;;;;;9.75;5.18;;;1.60;99.90;;;;;;5061857;28;20560;-63
2022/03/02 03:55:08;;;;;;;11.73;5.55;;;1.60;99.90;;;;;;5059220;28;20032;-63
2022/03/02 03:57:35;;;;;;;9.55;4.72;;;1.60;99.90;;;;;;5061459;28;20136;-65
2022/03/02 04:00:01;;;;;;;11.55;5.15;;;1.60;99.90;;;;;;5053013;28;20467;-65
2022/03/02 04:02:27;;;;;;;10.45;5.55;;;1.60;99.90;;;;;;5060836;28;20132;-64
2022/03/02 04:04:52;;;;;;;8.55;5.03;;;1.60;99.90;;;;;;5047081;28;20101;-65
2022/03/02 04:07:18;;;;;;;12.02;5.30;;;1.60;99.90;;;;;;5055545;28;20086;-64
2022/03/02 04:09:43;;;;;;;8.35;4.72;;;1.60;99.90;;;;;;5055249;28;20761;-65
2022/03/02 04:12:09;;;;;;;14.73;6.50;;;1.60;99.90;;;;;;5061756;28;20128;-64
2022/03/02 04:14:35;;;;;;;15.10;5.50;;;1.60;99.90;;;;;;5054951;28;20033;-64
2022/03/02 04:17:00;;;;;;;10.00;5.63;;;1.60;99.90;;;;;;5055903;28;20036;-64
2022/03/02 04:19:26;;;;;;;10.85;5.78;;;1.60;99.90;;;;;;5047391;28;20414;-66
2022/03/02 04:21:52;;;;;;;10.52;5.82;;;1.70;99.90;;;;;;5058092;28;20037;-64
2022/03/02 04:24:17;;;;;;;14.07;5.20;;;1.60;99.90;;;;;;5052972;28;20096;-64
2022/03/02 04:26:43;;;;;;;13.27;5.65;;;1.60;99.90;;;;;;5052637;28;20056;-65
2022/03/02 04:29:10;;;;;;;8.95;4.72;;;1.60;99.90;;;;;;5053564;28;20120;-64
2022/03/02 04:31:35;;;;;;;9.60;5.63;;;1.60;99.90;;;;;;5058012;28;20115;-64
2022/03/02 04:34:01;;;;;;;11.15;5.47;;;1.60;99.90;;;;;;5053988;28;20124;-65
2022/03/02 04:36:27;;;;;;;12.55;5.68;;;1.60;99.90;;;;;;5056377;28;20645;-64
2022/03/02 04:38:52;;;;;;;15.60;5.85;;;1.60;99.90;;;;;;5064348;28;20194;-64
2022/03/02 04:41:18;;;;;;;8.48;5.25;;;1.50;99.90;;;;;;5058913;28;20041;-64
2022/03/02 04:43:45;;;;;;;13.02;6.38;;;1.50;99.90;;;;;;5052877;28;20037;-65
2022/03/02 04:46:11;;;;;;;8.77;5.22;;;1.50;99.90;;;;;;5058741;28;20051;-64
2022/03/02 04:48:37;;;;;;;11.20;5.97;;;1.50;99.90;;;;;;5063615;28;20064;-65
2022/03/02 04:51:02;;;;;;;7.45;4.57;;;1.50;99.90;;;;;;5055465;28;20484;-65
2022/03/02 04:53:28;;;;;;;10.15;5.18;;;1.50;99.90;;;;;;5051867;28;20047;-64
2022/03/02 04:55:54;;;;;;;9.77;5.30;;;1.60;99.90;;;;;;5051740;28;20052;-64
2022/03/02 04:58:20;;;;;;;13.10;5.25;;;1.60;99.90;;;;;;5060752;28;20044;-65
2022/03/02 05:00:45;;;;;;;8.80;5.10;;;1.60;99.90;;;;;;5052313;28;20045;-64
2022/03/02 05:03:11;;;;;;;8.52;4.88;;;1.60;99.90;;;;;;5057185;28;20041;-65
2022/03/02 05:05:38;;;;;;;10.27;5.45;;;1.50;99.90;;;;;;5054129;28;20071;-64
2022/03/02 05:08:05;;;;;;;10.27;5.60;;;1.50;99.90;;;;;;5060535;28;20067;-64
2022/03/02 05:10:32;;;;;;;11.70;5.75;;;1.50;99.90;;;;;;5036268;28;20148;-64
2022/03/02 05:12:57;;;;;;;10.98;5.80;;;1.50;99.90;;;;;;5058413;28;20416;-64
2022/03/02 05:15:24;;;;;;;11.68;6.32;;;1.50;99.90;;;;;;5050508;28;20039;-64
2022/03/02 05:17:50;;;;;;;10.27;5.18;;;1.50;99.90;;;;;;5056432;28;20056;-65
2022/03/02 05:20:17;;;;;;;10.85;5.38;;;1.40;99.90;;;;;;5052101;28;20032;-64
2022/03/02 05:22:43;;;;;;;13.07;6.82;;;1.40;99.90;;;;;;5055872;28;20094;-66
2022/03/02 05:25:16;;;;;;;12.57;6.13;;;1.40;99.90;;;;;;5053284;28;20049;-65
2022/03/02 05:27:42;;;;;;;13.43;5.97;;;1.30;99.90;;;;;;5059381;28;20097;-66
2022/03/02 05:30:10;;;;;;;12.25;5.80;;;1.30;99.90;;;;;;5057825;28;20033;-65
2022/03/02 05:32:36;;;;;;;11.93;5.82;;;1.30;99.90;;;;;;5058583;28;20119;-65
2022/03/02 05:35:02;;;;;;;12.88;6.07;;;1.20;99.90;;;;;;5054550;28;20040;-67
2022/03/02 05:37:28;;;;;;;11.20;6.40;;;1.20;99.90;;;;;;5055570;28;20098;-65
2022/03/02 05:39:54;;;;;;;10.93;5.45;;;1.20;99.90;;;;;;5057143;28;20120;-65
2022/03/02 05:42:19;;;;;;;13.98;6.35;;;1.20;99.90;;;;;;5067464;28;20040;-66
2022/03/02 05:44:46;;;;;;;9.55;5.47;;;1.20;99.90;;;;;;5077427;28;20051;-64
2022/03/02 05:47:12;;;;;;;11.88;6.40;;;1.20;99.90;;;;;;5068780;28;20040;-63
2022/03/02 05:49:39;;;;;;;16.98;6.30;;;1.20;99.90;;;;;;5071827;28;20086;-64
2022/03/02 05:52:05;;;;;;;16.65;6.03;;;1.10;99.90;;;;;;5069725;28;20040;-64
2022/03/02 05:54:30;;;;;;;12.30;6.68;;;1.20;99.90;;;;;;5069682;28;20048;-63
2022/03/02 05:56:56;;;;;;;11.45;6.38;;;1.20;99.90;;;;;;5067656;28;20040;-65
2022/03/02 05:59:22;;;;;;;13.02;6.93;;;1.20;99.90;;;;;;5069525;28;20048;-65
2022/03/02 06:01:49;;;;;;;17.88;7.45;;;1.20;99.90;;;;;;5067150;28;20146;-66
2022/03/02 06:04:14;;;;;;;13.02;5.75;;;1.10;99.90;;;;;;5071947;28;20482;-65
2022/03/02 06:06:41;;;;;;;13.68;5.95;;;1.20;99.90;;;;;;5064049;28;20044;-64
2022/03/02 06:09:08;;;;;;;11.60;6.15;;;1.20;99.90;;;;;;5071290;28;20031;-64
2022/03/02 06:11:36;;;;;;;11.85;6.00;;;1.20;99.90;;;;;;5071574;28;20043;-64
2022/03/02 06:14:03;;;;;;;11.88;6.78;;;1.20;99.90;;;;;;5064427;28;20404;-64
2022/03/02 06:16:28;;;;;;;12.00;6.07;;;1.20;99.90;;;;;;5052921;28;20090;-64
2022/03/02 06:18:54;;;;;;;13.05;6.78;;;1.20;99.90;;;;;;5051844;28;20049;-64
2022/03/02 06:21:25;;;;;;;16.63;6.30;;;1.30;99.90;;;;;;5057917;28;20127;-64
2022/03/02 06:23:51;;;;;;;11.20;6.03;;;1.30;99.90;;;;;;5069979;28;20036;-63
2022/03/02 06:26:18;;;;;;;12.27;5.97;;;1.30;99.90;;;;;;5064103;28;20047;-63
2022/03/02 06:28:44;;;;;;;12.68;6.05;;;1.30;99.90;;;;;;5050714;28;20578;-63
2022/03/02 06:31:13;;;;;;;14.02;5.72;;;1.30;99.90;;;;;;5044644;28;20094;-63
2022/03/02 06:33:38;;;;;;;17.73;7.25;;;1.40;99.90;;;;;;5045420;28;20029;-65
2022/03/02 06:36:05;;;;;;;19.48;6.78;;;1.30;99.90;;;;;;5052975;28;20067;-63
2022/03/02 06:38:30;;;;;;;14.27;6.70;;;1.30;99.90;;;;;;5059264;28;20382;-63
2022/03/02 06:41:04;;;;;;;17.90;5.90;;;1.30;99.90;;;;;;5060172;28;20047;-64
2022/03/02 06:43:51;;;;;;;9.80;5.70;;;1.30;99.90;;;;;;5053940;28;20063;-64
2022/03/02 06:46:29;;;;;;;12.73;6.35;;;1.40;99.90;;;;;;5047664;28;20045;-64
2022/03/02 06:49:24;;;;;;;14.95;5.90;;;1.40;99.90;;;;;;5054689;28;20522;-63
2022/03/02 06:51:56;;;;;;;13.07;5.97;;;1.40;99.90;;;;;;5054937;28;20060;-64
2022/03/02 06:54:26;;;;;;;16.23;6.50;;;1.50;99.90;;;;;;5060672;28;20074;-63
2022/03/02 06:56:54;;;;;;;16.17;6.40;;;1.60;99.90;;;;;;5053273;28;20048;-64
2022/03/02 06:59:38;;;;;;;15.32;5.80;;;1.60;99.90;;;;;;5052663;28;20076;-63
2022/03/02 07:02:05;;;;;;;12.70;6.60;;;1.60;99.90;;;;;;5051149;28;20508;-63
2022/03/02 07:04:41;;;;;;;10.35;6.05;;;1.60;99.90;;;;;;5048307;28;20119;-63
2022/03/02 07:07:08;;;;;;;15.07;6.50;;;1.60;99.90;;;;;;5057051;28;20044;-64
2022/03/02 07:09:34;;;;;;;12.75;6.63;;;1.70;99.90;;;;;;5063035;28;20048;-64
2022/03/02 07:12:01;;;;;;;11.00;6.30;;;1.70;99.90;;;;;;5057735;28;20041;-64
2022/03/02 07:14:31;;;;;;;11.52;6.78;;;1.70;99.90;;;;;;5047503;28;20044;-63
2022/03/02 07:16:58;;;;;;;12.73;7.25;;;1.80;99.90;;;;;;5059849;28;20133;-64
2022/03/02 07:19:25;;;;;;;17.60;7.35;;;1.90;99.90;;;;;;5056418;28;20036;-64
2022/03/02 07:21:52;;;;;;;11.45;6.72;;;2.00;99.90;;;;;;5052994;28;20072;-63
2022/03/02 07:24:22;;;;;;;16.55;6.72;;;2.10;99.90;;;;;;5049959;28;20037;-63
2022/03/02 07:26:56;;;;;;;15.40;6.80;;;2.20;99.90;;;;;;5051912;28;20037;-63
2022/03/02 07:29:26;;;;;;;11.45;6.43;;;2.30;99.90;;;;;;5066027;28;20071;-63
2022/03/02 07:31:57;;;;;;;14.23;6.57;;;2.40;99.90;;;;;;5065454;28;20036;-64
2022/03/02 07:34:25;;;;;;;10.85;5.82;;;2.50;99.90;;;;;;5060619;28;20064;-63
2022/03/02 07:36:51;;;;;;;11.25;6.13;;;2.70;99.90;;;;;;5065217;28;20098;-65
2022/03/02 07:39:17;;;;;;;11.48;5.90;;;2.90;99.90;;;;;;5080007;28;20044;-63
2022/03/02 07:41:43;;;;;;;13.07;5.43;;;2.90;99.90;;;;;;5064406;28;20032;-63
2022/03/02 07:44:08;;;;;;;13.63;6.25;;;3.00;99.90;;;;;;5056064;28;20040;-63
2022/03/02 07:46:34;;;;;;;15.63;7.20;;;3.10;99.90;;;;;;5061162;28;20041;-63
2022/03/02 07:49:01;;;;;;;11.20;6.18;;;3.10;99.90;;;;;;5081278;28;20036;-64
2022/03/02 07:51:27;;;;;;;14.18;5.70;;;3.10;99.90;;;;;;5069458;28;20048;-63
2022/03/02 07:54:00;;;;;;;12.18;6.13;;;3.20;99.90;;;;;;5078229;28;20039;-63
2022/03/02 07:56:31;;;;;;;14.63;5.97;;;3.20;99.90;;;;;;5062225;28;20044;-63
2022/03/02 07:59:07;;;;;;;14.43;5.47;;;3.30;99.60;;;;;;5049899;28;20043;-63
2022/03/02 08:01:34;;;;;;;13.15;5.85;;;3.40;99.90;;;;;;5059188;28;20044;-64
2022/03/02 08:04:04;;;;;;;19.80;6.25;;;3.50;99.90;;;;;;5052136;28;20032;-65
2022/03/02 08:06:31;;;;;;;15.98;6.60;;;3.40;99.90;;;;;;5058993;28;20040;-63
2022/03/02 08:08:58;;;;;;;13.60;7.00;;;3.50;99.90;;;;;;5053958;28;20082;-63
2022/03/02 08:11:24;;;;;;;12.85;7.40;;;3.60;99.90;;;;;;5063744;28;20032;-63
2022/03/02 08:13:50;;;;;;;9.23;6.05;;;3.70;99.90;;;;;;5057042;28;20764;-63
2022/03/02 08:16:15;;;;;;;12.18;5.55;;;3.80;99.90;;;;;;5057346;28;20048;-63
2022/03/02 08:18:41;;;;;;;12.48;5.43;;;3.90;99.90;;;;;;5058194;28;20059;-64
2022/03/02 08:21:08;;;;;;;9.70;5.78;;;3.90;99.90;;;;;;5066043;28;20500;-64
2022/03/02 08:23:38;;;;;;;17.40;7.20;;;4.30;99.90;;;;;;5066492;28;20044;-63
2022/03/02 08:26:05;;;;;;;14.05;6.55;;;4.50;97.50;;;;;;5055466;28;20032;-63
2022/03/02 08:28:35;;;;;;;14.82;6.50;;;4.50;94.70;;;;;;5067312;28;20643;-65
2022/03/02 08:31:01;;;;;;;12.20;7.35;;;4.70;94.90;;;;;;5069232;28;20048;-64
2022/03/02 08:33:32;;;;;;;12.32;7.28;;;4.70;97.40;;;;;;5057875;28;20037;-63
2022/03/02 08:35:58;;;;;;;12.57;7.43;;;4.80;97.50;;;;;;5054140;28;20538;-64
2022/03/02 08:38:25;;;;;;;15.63;6.72;;;4.80;95.00;;;;;;5055664;28;20044;-63
2022/03/02 08:40:51;;;;;;;11.95;6.53;;;4.80;96.00;;;;;;5063087;28;20127;-65
2022/03/02 08:43:17;;;;;;;13.57;5.82;;;4.80;96.80;;;;;;5060321;28;20032;-64
2022/03/02 08:45:48;;;;;;;9.52;5.90;;;4.70;94.70;;;;;;5055899;28;20044;-63
2022/03/02 08:48:15;;;;;;;15.48;7.20;;;4.50;92.90;;;;;;5056930;28;20147;-64
2022/03/02 08:50:42;;;;;;;12.43;6.88;;;4.50;92.00;;;;;;5060307;28;20115;-63
2022/03/02 08:53:12;;;;;;;11.88;6.35;;;4.50;91.60;;;;;;5056762;28;20043;-63
2022/03/02 08:55:39;;;;;;;9.60;4.90;;;4.50;91.00;;;;;;5055066;28;20043;-64
2022/03/02 08:58:04;;;;;;;10.32;6.28;;;4.60;86.50;;;;;;5062417;28;20049;-63
2022/03/02 09:00:33;;;;;;;13.80;6.20;;;4.70;87.70;;;;;;5056452;28;20033;-63
2022/03/02 09:03:01;;;;;;;13.18;6.45;;;4.80;89.50;;;;;;5050716;28;20516;-63
2022/03/02 09:05:27;;;;;;;9.95;5.60;;;4.90;86.40;;;;;;5054052;28;20041;-64
2022/03/02 09:07:54;;;;;;;11.25;6.05;;;4.90;89.00;;;;;;5059655;28;20562;-63
2022/03/02 09:10:20;;;;;;;13.48;5.95;;;4.90;84.60;;;;;;5059885;28;20036;-63
2022/03/02 09:12:46;;;;;;;9.52;5.72;;;5.00;87.30;;;;;;5059498;28;20068;-64
2022/03/02 09:15:12;;;;;;;11.15;6.22;;;5.10;83.50;;;;;;5054818;28;20072;-64
2022/03/02 09:17:37;;;;;;;;;;;5.20;81.00;;;;;;5058924;28;20036;-64
2022/03/02 09:20:05;;;;;;;11.25;6.15;;;5.20;79.50;;;;;;5058013;28;19916;-65
2022/03/02 09:22:31;;;;;;;10.88;6.03;;;5.40;81.70;;;;;;5048492;28;20048;-63
2022/03/02 09:24:57;;;;;;;9.35;4.88;;;5.40;77.40;;;;;;5051600;28;20123;-63
2022/03/02 09:27:27;;;;;;;11.13;5.47;;;5.50;76.80;;;;;;5058950;28;20649;-63
2022/03/02 09:29:56;;;;;;;9.65;5.13;;;5.30;75.20;;;;;;5058435;28;20058;-64
2022/03/02 09:32:24;;;;;;;9.73;6.10;;;5.50;79.20;;;;;;5062238;28;20165;-63
2022/03/02 09:34:54;;;;;;;10.23;5.25;;;5.70;77.40;;;;;;5047393;28;20041;-63
2022/03/02 09:37:23;;;;;;;12.80;6.18;;;5.80;78.30;;;;;;5058789;28;20040;-64
2022/03/02 09:39:50;;;;;;;11.65;5.40;;;6.00;81.30;;;;;;5056253;28;20089;-65
2022/03/02 09:42:25;;;;;;;9.20;5.38;;;6.20;81.00;;;;;;5059999;28;20716;-65
2022/03/02 09:45:01;;;;;;;11.50;5.85;;;6.20;77.30;;;;;;5053624;28;20047;-63
2022/03/02 09:47:42;;;;;;;10.37;5.80;;;6.30;77.10;;;;;;5058100;28;20036;-65
2022/03/02 09:50:10;;;;;;;15.35;6.43;;;6.40;80.50;;;;;;5057316;28;20643;-65
2022/03/02 09:52:38;;;;;;;10.02;5.60;;;6.40;75.00;;;;;;5066648;28;20044;-63
2022/03/02 09:55:09;;;;;;;9.95;5.95;;;6.50;74.20;;;;;;5057568;28;20040;-63
2022/03/02 09:57:41;;;;;;;9.68;5.57;;;6.40;73.50;;;;;;5067451;28;20119;-64
2022/03/02 10:00:09;;;;;;;12.23;6.20;;;6.60;73.30;;;;;;5072934;28;20129;-64
2022/03/02 10:02:40;;;;;;;9.55;5.80;;;6.80;76.80;;;;;;5060246;28;20551;-64
2022/03/02 10:05:09;;;;;;;14.43;5.97;;;6.80;73.20;;;;;;5054698;28;20520;-65
2022/03/02 10:07:36;;;;;;;12.90;6.43;;;6.80;70.60;;;;;;5061523;28;20106;-63
2022/03/02 10:10:23;;;;;;;9.73;5.65;;;6.80;70.60;;;;;;5057586;28;20052;-65
2022/03/02 10:12:55;;;;;;;9.75;6.38;;;6.80;71.00;;;;;;5060983;28;20063;-62
2022/03/02 10:15:21;;;;;;;12.93;6.05;;;6.80;68.20;;;;;;5053204;28;20052;-65
2022/03/02 10:17:48;;;;;;;;;;;6.90;72.60;;;;;;5052978;28;20105;-64
2022/03/02 10:20:17;;;;;;;11.00;5.60;;;7.10;74.20;;;;;;5053728;28;19974;-64
2022/03/02 10:23:14;;;;;;;10.60;5.65;;;7.30;72.40;;;;;;5056135;28;20068;-63
2022/03/02 10:25:58;;;;;;;12.00;5.40;;;7.20;65.60;;;;;;5056952;28;20098;-65
2022/03/02 10:28:29;;;;;;;11.93;6.32;;;7.00;67.00;;;;;;5055701;28;20044;-64
2022/03/02 10:31:08;;;;;;;10.43;6.38;;;7.10;64.80;;;;;;5056057;28;20431;-63
2022/03/02 10:33:42;;;;;;;9.60;5.53;;;7.40;69.90;;;;;;5051937;28;20037;-64
2022/03/02 10:36:10;;;;;;;9.35;5.32;;;7.60;67.60;;;;;;5050467;28;20040;-65
2022/03/02 10:38:38;;;;;;;11.75;5.75;;;7.80;68.20;;;;;;5052718;28;20090;-64
2022/03/02 10:41:07;;;;;;;9.63;5.78;;;7.90;61.30;;;;;;5052596;28;20037;-65
2022/03/02 10:43:59;;;;;;;10.32;6.22;;;8.00;63.10;;;;;;5051287;28;20043;-66
2022/03/02 10:46:26;;;;;;;14.18;5.68;;;8.20;67.40;;;;;;5052984;28;20102;-64
2022/03/02 10:49:05;;;;;;;9.98;5.80;;;8.30;61.60;;;;;;5077340;28;20587;-64
2022/03/02 10:51:35;;;;;;;14.65;6.50;;;8.20;61.30;;;;;;5055218;28;20048;-64
2022/03/02 10:54:04;;;;;;;10.75;6.13;;;8.30;61.20;;;;;;5056379;28;20173;-64
2022/03/02 10:56:38;;;;;;;8.68;5.88;;;8.40;65.80;;;;;;5053236;28;20131;-64
2022/03/02 10:59:10;;;;;;;12.82;6.15;;;8.40;62.10;;;;;;5053526;28;20040;-64
2022/03/02 11:01:37;;;;;;;8.85;5.32;;;8.20;58.90;;;;;;5052108;28;20082;-64
2022/03/02 11:04:05;;;;;;;10.93;5.97;;;8.20;61.00;;;;;;5052217;28;20040;-64
2022/03/02 11:06:33;;;;;;;8.63;5.68;;;8.10;62.20;;;;;;5057176;28;20044;-64
2022/03/02 11:09:02;;;;;;;18.52;5.85;;;8.20;63.10;;;;;;5051129;28;20048;-64
2022/03/02 11:11:29;;;;;;;12.38;6.15;;;8.20;64.10;;;;;;5056384;28;20041;-64
2022/03/02 11:13:55;;;;;;;12.30;5.97;;;8.00;60.20;;;;;;5051741;28;20048;-64
2022/03/02 11:16:21;;;;;;;;;;;7.80;60.10;;;;;;5054596;28;20401;-65
2022/03/02 11:18:52;;;;;;;11.57;5.85;;;7.70;62.00;;;;;;5051258;28;19916;-64
2022/03/02 11:21:22;;;;;;;9.27;5.90;;;7.60;62.60;;;;;;5056471;28;20040;-65
2022/03/02 11:23:57;;;;;;;10.77;6.10;;;7.60;64.50;;;;;;5053232;28;21074;-64
2022/03/02 11:26:26;;;;;;;11.48;5.85;;;7.50;61.50;;;;;;5071290;28;20052;-64
2022/03/02 11:28:54;;;;;;;11.05;5.35;;;7.30;61.20;;;;;;5056168;28;20067;-64
2022/03/02 11:31:30;;;;;;;8.88;5.32;;;7.40;64.70;;;;;;5053931;28;20127;-65
2022/03/02 11:34:10;;;;;;;10.15;5.57;;;7.50;64.90;;;;;;5062730;28;20123;-64
2022/03/02 11:36:38;;;;;;;13.32;5.90;;;7.70;64.70;;;;;;5063029;28;20055;-64
2022/03/02 11:39:05;;;;;;;12.85;5.57;;;7.80;62.40;;;;;;5050354;28;20029;-66
2022/03/02 11:41:39;;;;;;;7.53;4.93;;;7.90;63.90;;;;;;5055523;28;20044;-64
2022/03/02 11:44:29;;;;;;;9.18;5.68;;;8.10;64.40;;;;;;5052905;28;20084;-64
2022/03/02 11:46:59;;;;;;;8.27;4.63;;;8.10;61.40;;;;;;5056552;28;20135;-65
2022/03/02 11:49:47;;;;;;;7.38;5.05;;;8.10;63.90;;;;;;5050505;28;20123;-63
2022/03/02 11:52:16;;;;;;;11.02;6.00;;;8.10;61.20;;;;;;5052664;28;20037;-63
2022/03/02 11:55:07;;;;;;;15.25;5.95;;;8.00;58.80;;;;;;5051993;28;20633;-63
2022/03/02 11:57:48;;;;;;;10.13;5.15;;;7.90;59.70;;;;;;5047565;28;20064;-62
2022/03/02 12:00:19;;;;;;;10.15;6.72;;;7.70;58.30;;;;;;5047318;28;20040;-62
2022/03/02 12:02:48;;;;;;;10.68;5.95;;;7.60;59.60;;;;;;5056378;28;20040;-62
2022/03/02 12:05:15;;;;;;;11.05;6.60;;;7.60;59.20;;;;;;5051735;28;20036;-62
2022/03/02 12:07:46;;;;;;;9.77;6.10;;;7.60;60.00;;;;;;5057373;28;20052;-63
2022/03/02 12:10:27;;;;;;;10.13;5.07;;;7.70;60.80;;;;;;5056333;28;20037;-62
2022/03/02 12:12:54;;;;;;;10.02;5.88;;;7.60;60.20;;;;;;5048771;28;20048;-63
2022/03/02 12:15:21;;;;;;;10.70;5.95;;;7.50;59.40;;;;;;5056551;28;20101;-63
2022/03/02 12:17:49;;;;;;;10.95;6.07;;;7.50;59.90;;;;;;5052726;28;20048;-62
2022/03/02 12:20:23;;;;;;;8.90;5.35;;;7.80;61.40;;;;;;5057464;28;20040;-62
2022/03/02 12:22:56;;;;;;;10.88;6.20;;;7.90;60.80;;;;;;5052841;28;20037;-60
2022/03/02 12:25:25;;;;;;;9.90;5.25;;;7.80;57.80;;;;;;5056712;28;20045;-62
2022/03/02 12:28:03;;;;;;;10.90;5.70;;;7.80;62.50;;;;;;5057332;28;20127;-63
2022/03/02 12:30:31;;;;;;;11.85;5.10;;;7.90;61.60;;;;;;5055149;28;20044;-62
2022/03/02 12:32:57;;;;;;;9.40;5.00;;;8.20;58.30;;;;;;5057955;28;20040;-63
2022/03/02 12:35:23;;;;;;;;;;;8.10;55.60;;;;;;5055863;28;20041;-62
2022/03/02 12:37:59;;;;;;;8.35;4.50;;;8.10;56.70;;;;;;5069472;28;20806;-63
2022/03/02 12:40:28;;;;;;;11.93;5.25;;;8.20;58.50;;;;;;5070526;28;20123;-62
2022/03/02 12:42:55;;;;;;;10.07;5.05;;;8.30;58.70;;;;;;5071245;28;20040;-62
2022/03/02 12:45:22;;;;;;;7.22;5.47;;;8.50;59.90;;;;;;5072274;28;20044;-62
2022/03/02 12:47:49;;;;;;;10.60;5.35;;;8.50;58.70;;;;;;5057719;28;20139;-62
2022/03/02 12:50:17;;;;;;;10.32;5.38;;;8.60;59.50;;;;;;5056261;28;20101;-62
2022/03/02 12:52:43;;;;;;;9.73;5.47;;;8.40;58.10;;;;;;5052771;28;20043;-62
2022/03/02 12:55:11;;;;;;;11.25;5.80;;;8.30;56.80;;;;;;5061697;28;20072;-63